createdAt,value
2017-10-12T00:02:07.694Z,79.76
2017-10-12T00:04:35.945Z,79.69
2017-10-12T00:07:04.191Z,79.34
2017-10-12T00:09:32.453Z,79.04
2017-10-12T00:12:00.711Z,79.31
2017-10-12T00:14:28.980Z,79.46
2017-10-12T00:16:57.242Z,79.93
2017-10-12T00:19:25.505Z,80.12
2017-10-12T00:21:53.776Z,79.94
2017-10-12T00:24:22.032Z,79.58
2017-10-12T00:26:50.292Z,78.93
2017-10-12T00:29:18.533Z,79.36
2017-10-12T00:31:47.559Z,79.64
2017-10-12T00:34:15.821Z,80.30
2017-10-12T00:36:44.836Z,80.24
2017-10-12T00:39:13.118Z,80.27
2017-10-12T00:41:41.374Z,80.52
2017-10-12T00:44:09.622Z,80.72
2017-10-12T00:46:38.637Z,80.67
2017-10-12T00:49:06.888Z,80.78
2017-10-12T00:51:35.918Z,80.73
2017-10-12T00:54:04.171Z,81.20
2017-10-12T00:56:33.396Z,82.09
2017-10-12T00:59:01.658Z,81.77
2017-10-12T01:01:29.925Z,81.61
2017-10-12T01:03:58.183Z,81.60
2017-10-12T01:06:27.214Z,81.34
2017-10-12T01:08:55.468Z,81.59
2017-10-12T01:11:23.741Z,82.15
2017-10-12T01:13:52.767Z,82.30
2017-10-12T01:16:21.043Z,82.89
2017-10-12T01:18:49.311Z,83.04
2017-10-12T01:21:17.574Z,83.05
2017-10-12T01:23:47.371Z,83.02
2017-10-12T01:26:16.390Z,82.52
2017-10-12T01:28:44.650Z,82.15
2017-10-12T01:31:12.919Z,82.42
2017-10-12T01:33:41.939Z,82.15
2017-10-12T01:36:10.195Z,81.88
2017-10-12T01:38:38.439Z,81.79
2017-10-12T01:41:06.694Z,81.98
2017-10-12T01:43:34.952Z,81.67
2017-10-12T01:46:03.483Z,81.67
2017-10-12T01:48:49.483Z,81.72
2017-10-12T01:53:46.581Z,81.73
2017-10-12T01:56:14.839Z,81.41
2017-10-12T01:58:43.086Z,81.37
2017-10-12T02:01:11.364Z,81.73
2017-10-12T02:03:39.616Z,81.68
2017-10-12T02:08:35.418Z,81.95
2017-10-12T02:11:03.670Z,82.34
2017-10-12T02:13:31.918Z,82.26
2017-10-12T02:16:00.181Z,82.50
2017-10-12T02:18:28.436Z,82.76
2017-10-12T02:20:56.701Z,82.62
2017-10-12T02:23:24.948Z,82.71
2017-10-12T02:25:53.201Z,82.80
2017-10-12T02:28:22.214Z,82.69
2017-10-12T02:30:50.469Z,82.70
2017-10-12T02:33:19.490Z,82.35
2017-10-12T02:35:47.748Z,82.23
2017-10-12T02:38:16.759Z,82.43
2017-10-12T02:40:45.017Z,82.38
2017-10-12T02:43:14.035Z,82.04
2017-10-12T02:45:42.295Z,81.74
2017-10-12T02:48:10.545Z,81.26
2017-10-12T02:50:38.793Z,80.94
2017-10-12T02:53:07.043Z,81.20
2017-10-12T02:55:35.312Z,81.00
2017-10-12T02:58:03.561Z,80.91
2017-10-12T03:00:32.589Z,80.62
2017-10-12T03:03:00.854Z,80.50
2017-10-12T03:05:29.114Z,80.18
2017-10-12T03:07:57.375Z,80.56
2017-10-12T03:10:26.402Z,80.92
2017-10-12T03:12:54.659Z,80.83
2017-10-12T03:15:22.923Z,80.85
2017-10-12T03:17:51.178Z,81.24
2017-10-12T03:20:19.452Z,81.04
2017-10-12T03:22:47.715Z,81.34
2017-10-12T03:25:15.979Z,81.27
2017-10-12T03:27:44.233Z,81.14
2017-10-12T03:30:12.490Z,81.00
2017-10-12T03:32:40.758Z,80.23
2017-10-12T03:35:09.771Z,79.93
2017-10-12T03:37:38.056Z,80.47
2017-10-12T03:40:06.310Z,80.68
2017-10-12T03:42:34.573Z,80.37
2017-10-12T03:45:03.593Z,80.79
2017-10-12T03:47:31.856Z,80.75
2017-10-12T03:50:00.107Z,80.58
2017-10-12T03:52:29.140Z,81.08
2017-10-12T03:54:57.395Z,80.95
2017-10-12T03:57:25.661Z,80.52
2017-10-12T03:59:54.688Z,80.39
2017-10-12T04:02:22.955Z,80.14
2017-10-12T04:04:51.218Z,79.95
2017-10-12T04:07:19.488Z,79.94
2017-10-12T04:09:48.511Z,79.97
2017-10-12T04:12:16.778Z,79.74
2017-10-12T04:14:45.029Z,79.17
2017-10-12T04:17:14.056Z,79.25
2017-10-12T04:19:42.307Z,78.87
2017-10-12T04:22:10.574Z,78.32
2017-10-12T04:24:39.590Z,78.63
2017-10-12T04:27:07.862Z,78.70
2017-10-12T04:29:36.119Z,78.87
2017-10-12T04:32:04.391Z,78.88
2017-10-12T04:34:33.394Z,78.76
2017-10-12T04:37:01.654Z,77.81
2017-10-12T04:39:30.666Z,78.03
2017-10-12T04:41:58.929Z,77.85
2017-10-12T04:44:27.942Z,77.51
2017-10-12T04:46:56.197Z,77.68
2017-10-12T04:49:25.212Z,77.10
2017-10-12T04:51:53.466Z,77.19
2017-10-12T04:54:23.060Z,77.12
2017-10-12T04:56:52.096Z,76.83
2017-10-12T04:59:20.349Z,77.10
2017-10-12T05:01:48.603Z,76.43
2017-10-12T05:04:17.624Z,75.87
2017-10-12T05:06:45.874Z,75.78
2017-10-12T05:09:14.113Z,75.77
2017-10-12T05:11:42.379Z,75.91
2017-10-12T05:14:10.631Z,75.23
2017-10-12T05:16:38.895Z,75.68
2017-10-12T05:19:07.143Z,75.18
2017-10-12T05:21:35.401Z,75.36
2017-10-12T05:24:03.648Z,75.46
2017-10-12T05:26:31.906Z,75.17
2017-10-12T05:29:00.181Z,75.14
2017-10-12T05:31:28.456Z,75.03
2017-10-12T05:33:56.708Z,74.80
2017-10-12T05:36:25.746Z,74.66
2017-10-12T05:38:54.006Z,74.64
2017-10-12T05:41:22.280Z,74.08
2017-10-12T05:43:50.544Z,74.39
2017-10-12T05:46:18.806Z,74.65
2017-10-12T05:48:47.058Z,74.53
2017-10-12T05:51:15.328Z,74.09
2017-10-12T05:53:43.597Z,74.13
2017-10-12T05:56:11.867Z,74.22
2017-10-12T05:58:40.127Z,74.25
2017-10-12T06:01:08.394Z,74.35
2017-10-12T06:03:36.652Z,74.55
2017-10-12T06:06:04.922Z,73.89
2017-10-12T06:08:33.190Z,74.24
2017-10-12T06:11:02.202Z,74.08
2017-10-12T06:13:30.465Z,74.12
2017-10-12T06:15:58.723Z,74.36
2017-10-12T06:18:26.975Z,74.13
2017-10-12T06:20:55.227Z,74.26
2017-10-12T06:23:23.489Z,74.32
2017-10-12T06:25:51.743Z,74.24
2017-10-12T06:28:20.013Z,74.29
2017-10-12T06:30:49.029Z,74.78
2017-10-12T06:33:17.272Z,74.84
2017-10-12T06:35:46.289Z,74.86
2017-10-12T06:38:14.545Z,74.91
2017-10-12T06:40:43.596Z,74.88
2017-10-12T06:43:11.878Z,75.09
2017-10-12T06:45:40.137Z,75.24
2017-10-12T06:48:08.390Z,75.20
2017-10-12T06:50:36.634Z,74.95
2017-10-12T06:53:05.651Z,74.84
2017-10-12T06:55:33.899Z,74.86
2017-10-12T06:58:02.151Z,74.97
2017-10-12T07:00:30.393Z,75.19
2017-10-12T07:02:58.650Z,75.14
2017-10-12T07:05:26.899Z,75.20
2017-10-12T07:07:55.918Z,74.99
2017-10-12T07:10:24.166Z,74.80
2017-10-12T07:12:52.418Z,74.88
2017-10-12T07:15:20.675Z,74.97
2017-10-12T07:17:48.952Z,74.65
2017-10-12T07:20:17.219Z,74.67
2017-10-12T07:22:45.475Z,74.71
2017-10-12T07:25:13.711Z,74.78
2017-10-12T07:27:41.958Z,74.82
2017-10-12T07:30:10.206Z,74.72
2017-10-12T07:32:38.466Z,74.54
2017-10-12T07:35:06.713Z,74.51
2017-10-12T07:37:34.970Z,74.14
2017-10-12T07:40:03.231Z,74.17
2017-10-12T07:42:31.732Z,73.56
2017-10-12T07:44:59.985Z,73.60
2017-10-12T07:47:28.244Z,73.31
2017-10-12T07:49:56.494Z,73.39
2017-10-12T07:52:25.515Z,73.81
2017-10-12T07:54:53.754Z,74.07
2017-10-12T07:57:22.775Z,74.17
2017-10-12T07:59:51.022Z,74.04
2017-10-12T08:02:19.271Z,73.92
2017-10-12T08:04:47.515Z,74.07
2017-10-12T08:07:15.766Z,72.98
2017-10-12T08:09:44.018Z,73.04
2017-10-12T08:12:12.265Z,72.00
2017-10-12T08:14:40.516Z,72.36
2017-10-12T08:17:08.763Z,72.42
2017-10-12T08:19:37.776Z,72.81
2017-10-12T08:22:06.026Z,73.19
2017-10-12T08:24:35.043Z,72.97
2017-10-12T08:27:03.294Z,73.27
2017-10-12T08:29:32.306Z,73.62
2017-10-12T08:32:00.566Z,73.67
2017-10-12T08:34:29.575Z,73.34
2017-10-12T08:36:57.825Z,73.57
2017-10-12T08:39:26.839Z,73.01
2017-10-12T08:41:55.093Z,73.17
2017-10-12T08:44:24.105Z,72.69
2017-10-12T08:46:52.351Z,72.85
2017-10-12T08:49:20.607Z,73.08
2017-10-12T08:51:48.848Z,72.96
2017-10-12T08:54:17.102Z,72.31
2017-10-12T08:56:46.122Z,72.53
2017-10-12T08:59:14.380Z,73.06
2017-10-12T09:01:42.643Z,72.74
2017-10-12T09:04:11.655Z,72.76
2017-10-12T09:06:39.908Z,73.23
2017-10-12T09:09:08.921Z,73.45
2017-10-12T09:11:37.172Z,72.92
2017-10-12T09:14:06.182Z,72.80
2017-10-12T09:16:34.441Z,72.55
2017-10-12T09:19:03.454Z,72.39
2017-10-12T09:21:31.704Z,71.90
2017-10-12T09:24:00.721Z,71.88
2017-10-12T09:26:28.962Z,71.45
2017-10-12T09:28:57.214Z,71.62
2017-10-12T09:31:25.462Z,71.86
2017-10-12T09:33:53.726Z,71.73
2017-10-12T09:36:21.971Z,71.31
2017-10-12T09:38:50.987Z,71.86
2017-10-12T09:41:19.234Z,71.85
2017-10-12T09:43:47.798Z,71.69
2017-10-12T09:46:16.057Z,70.73
2017-10-12T09:48:45.082Z,71.76
2017-10-12T09:51:13.326Z,71.57
2017-10-12T09:53:41.571Z,71.42
2017-10-12T09:56:09.818Z,69.79
2017-10-12T09:58:38.084Z,69.56
2017-10-12T10:01:06.325Z,68.83
2017-10-12T10:03:34.597Z,69.10
2017-10-12T10:06:02.842Z,68.38
2017-10-12T10:08:31.090Z,66.59
2017-10-12T10:10:59.330Z,65.94
2017-10-12T10:13:27.598Z,65.84
2017-10-12T10:15:55.851Z,64.24
2017-10-12T10:18:24.107Z,64.32
2017-10-12T10:20:53.126Z,63.25
2017-10-12T10:23:21.370Z,63.55
2017-10-12T10:25:50.412Z,62.97
2017-10-12T10:28:18.654Z,64.11
2017-10-12T10:30:46.896Z,63.63
2017-10-12T10:33:15.160Z,64.47
2017-10-12T10:35:43.415Z,64.29
2017-10-12T10:38:11.669Z,63.08
2017-10-12T10:40:39.911Z,61.18
2017-10-12T10:43:08.940Z,60.65
2017-10-12T10:45:37.200Z,59.93
2017-10-12T10:48:06.215Z,61.19
2017-10-12T10:50:34.471Z,62.24
2017-10-12T10:53:02.723Z,62.15
2017-10-12T10:55:31.744Z,62.16
2017-10-12T10:57:59.995Z,62.72
2017-10-12T11:00:29.006Z,62.46
2017-10-12T11:02:57.750Z,62.52
2017-10-12T11:05:26.012Z,62.66
2017-10-12T11:07:54.277Z,61.90
2017-10-12T11:10:22.527Z,61.80
2017-10-12T11:12:50.786Z,61.88
2017-10-12T11:15:19.047Z,61.35
2017-10-12T11:17:47.321Z,60.12
2017-10-12T11:20:15.559Z,59.96
2017-10-12T11:22:43.816Z,59.07
2017-10-12T11:25:12.059Z,58.85
2017-10-12T11:27:41.075Z,59.46
2017-10-12T11:30:09.319Z,60.00
2017-10-12T11:32:38.345Z,54.29
2017-10-12T11:35:06.581Z,55.12
2017-10-12T11:37:35.599Z,50.53
2017-10-12T11:40:03.843Z,50.77
2017-10-12T11:42:32.090Z,50.11
2017-10-12T11:45:00.340Z,50.44
2017-10-12T11:47:28.599Z,53.03
2017-10-12T11:49:56.843Z,52.49
2017-10-12T11:52:25.094Z,56.34
2017-10-12T11:54:53.344Z,55.41
2017-10-12T11:57:21.590Z,55.25
2017-10-12T11:59:50.600Z,52.90
2017-10-12T12:02:18.847Z,52.58
2017-10-12T12:04:47.871Z,55.20
2017-10-12T12:07:16.106Z,53.23
2017-10-12T12:09:44.359Z,56.11
2017-10-12T12:12:12.600Z,55.80
2017-10-12T12:14:40.855Z,55.50
2017-10-12T12:17:09.861Z,54.05
2017-10-12T12:19:38.120Z,55.89
2017-10-12T12:22:07.125Z,54.17
2017-10-12T12:24:35.386Z,53.16
2017-10-12T12:27:04.389Z,53.86
2017-10-12T12:29:32.646Z,52.12
2017-10-12T12:32:01.657Z,53.70
2017-10-12T12:34:30.667Z,52.85
2017-10-12T12:36:58.910Z,54.78
2017-10-12T12:39:27.930Z,51.88
2017-10-12T12:41:56.180Z,53.49
2017-10-12T12:44:25.202Z,52.65
2017-10-12T12:46:53.457Z,52.60
2017-10-12T12:49:22.487Z,51.43
2017-10-12T12:51:50.754Z,52.79
2017-10-12T12:54:19.012Z,49.36
2017-10-12T12:56:47.255Z,48.96
2017-10-12T12:59:15.514Z,47.27
2017-10-12T13:01:43.755Z,49.79
2017-10-12T13:04:12.010Z,51.62
2017-10-12T13:06:40.254Z,50.71
2017-10-12T13:09:08.506Z,45.62
2017-10-12T13:11:36.755Z,45.26
2017-10-12T13:14:05.010Z,49.17
2017-10-12T13:16:33.252Z,46.47
2017-10-12T13:19:01.524Z,46.93
2017-10-12T13:21:29.786Z,47.77
2017-10-12T13:23:58.035Z,50.65
2017-10-12T13:26:26.281Z,49.69
2017-10-12T13:28:55.291Z,48.51
2017-10-12T13:31:23.533Z,45.77
2017-10-12T13:33:52.550Z,46.96
2017-10-12T13:36:20.802Z,50.82
2017-10-12T13:38:49.814Z,52.92
2017-10-12T13:41:18.067Z,53.90
2017-10-12T13:43:46.562Z,52.80
2017-10-12T13:46:15.584Z,52.61
2017-10-12T13:48:43.847Z,52.95
2017-10-12T13:51:12.094Z,52.70
2017-10-12T13:53:41.106Z,52.62
2017-10-12T13:56:09.351Z,52.92
2017-10-12T13:58:37.600Z,53.43
2017-10-12T14:01:05.860Z,53.15
2017-10-12T14:03:34.133Z,54.72
2017-10-12T14:06:02.379Z,53.04
2017-10-12T14:08:31.386Z,51.46
2017-10-12T14:10:59.628Z,52.21
2017-10-12T14:13:27.884Z,53.26
2017-10-12T14:15:56.130Z,54.33
2017-10-12T14:18:24.387Z,55.24
2017-10-12T14:20:52.634Z,55.61
2017-10-12T14:23:21.655Z,56.18
2017-10-12T14:25:49.915Z,55.93
2017-10-12T14:28:18.145Z,55.67
2017-10-12T14:30:47.154Z,55.64
2017-10-12T14:33:15.399Z,56.20
2017-10-12T14:35:43.644Z,56.40
2017-10-12T14:38:11.894Z,56.39
2017-10-12T14:40:40.902Z,56.47
2017-10-12T14:43:09.940Z,56.08
2017-10-12T14:45:39.015Z,56.75
2017-10-12T14:48:07.258Z,56.49
2017-10-12T14:50:36.288Z,56.77
2017-10-12T14:53:04.522Z,56.41
2017-10-12T14:55:33.542Z,56.25
2017-10-12T14:58:01.791Z,57.45
2017-10-12T15:00:30.816Z,57.76
2017-10-12T15:02:59.062Z,57.16
2017-10-12T15:05:28.089Z,57.28
2017-10-12T15:07:56.344Z,57.62
2017-10-12T15:10:25.342Z,57.52
2017-10-12T15:12:54.840Z,57.56
2017-10-12T15:15:23.863Z,56.03
2017-10-12T15:17:52.120Z,57.16
2017-10-12T15:20:20.541Z,57.83
2017-10-12T15:22:48.791Z,58.11
2017-10-12T15:25:17.058Z,58.28
2017-10-12T15:27:45.310Z,59.09
2017-10-12T15:30:14.330Z,59.54
2017-10-12T15:32:42.583Z,59.84
2017-10-12T15:35:11.604Z,60.69
2017-10-12T15:37:39.849Z,60.45
2017-10-12T15:40:08.885Z,61.67
2017-10-12T15:42:37.140Z,61.65
2017-10-12T15:45:05.408Z,61.73
2017-10-12T15:47:33.663Z,61.58
2017-10-12T15:50:02.687Z,62.32
2017-10-12T15:52:30.945Z,62.46
2017-10-12T15:54:59.207Z,63.31
2017-10-12T15:57:28.219Z,63.82
2017-10-12T15:59:56.488Z,63.92
2017-10-12T16:02:24.736Z,64.15
2017-10-12T16:04:53.019Z,64.21
2017-10-12T16:07:22.080Z,64.92
2017-10-12T16:09:50.327Z,64.61
2017-10-12T16:12:18.606Z,64.78
2017-10-12T16:14:46.866Z,65.14
2017-10-12T16:17:15.114Z,65.67
2017-10-12T16:19:44.147Z,65.70
2017-10-12T16:22:12.411Z,66.00
2017-10-12T16:24:40.664Z,66.86
2017-10-12T16:27:09.694Z,66.69
2017-10-12T16:29:37.943Z,67.08
2017-10-12T16:32:06.981Z,67.11
2017-10-12T16:34:35.233Z,67.24
2017-10-12T16:37:03.503Z,67.78
2017-10-12T16:39:31.765Z,67.84
2017-10-12T16:42:00.783Z,67.68
2017-10-12T16:44:29.052Z,68.01
2017-10-12T16:46:57.330Z,68.14
2017-10-12T16:49:25.579Z,68.10
2017-10-12T16:51:53.846Z,68.35
2017-10-12T16:54:22.104Z,68.57
2017-10-12T16:56:50.364Z,68.57
2017-10-12T16:59:18.632Z,68.51
2017-10-12T17:01:46.910Z,68.68
2017-10-12T17:04:15.166Z,68.73
2017-10-12T17:06:43.452Z,68.41
2017-10-12T17:09:11.702Z,68.66
2017-10-12T17:11:39.972Z,69.06
2017-10-12T17:14:08.239Z,69.40
2017-10-12T17:16:36.511Z,69.34
2017-10-12T17:19:04.791Z,69.53
2017-10-12T17:21:33.815Z,69.15
2017-10-12T17:24:02.096Z,69.41
2017-10-12T17:26:30.354Z,69.54
2017-10-12T17:28:58.615Z,69.10
2017-10-12T17:31:26.871Z,69.47
2017-10-12T17:33:55.907Z,69.51
2017-10-12T17:36:24.159Z,69.58
2017-10-12T17:38:52.463Z,69.64
2017-10-12T17:43:48.979Z,70.38
2017-10-12T17:46:18.005Z,70.20
2017-10-12T17:48:46.261Z,70.51
2017-10-12T17:51:14.515Z,70.72
2017-10-12T17:53:42.790Z,71.00
2017-10-12T17:56:11.050Z,71.28
2017-10-12T17:58:39.316Z,71.06
2017-10-12T18:01:07.582Z,71.21
2017-10-12T18:03:35.870Z,70.96
2017-10-12T18:06:04.125Z,70.67
2017-10-12T18:08:32.384Z,71.18
2017-10-12T18:11:00.636Z,71.43
2017-10-12T18:13:28.899Z,71.25
2017-10-12T18:15:57.915Z,71.65
2017-10-12T18:18:26.243Z,71.85
2017-10-12T18:20:54.508Z,72.56
2017-10-12T18:23:22.785Z,73.07
2017-10-12T18:25:51.039Z,73.27
2017-10-12T18:28:19.297Z,73.34
2017-10-12T18:30:47.557Z,73.70
2017-10-12T18:33:15.830Z,73.69
2017-10-12T18:35:44.098Z,74.25
2017-10-12T18:38:13.120Z,74.88
2017-10-12T18:40:41.382Z,75.04
2017-10-12T18:43:09.645Z,75.33
2017-10-12T18:45:38.677Z,75.22
2017-10-12T18:48:06.949Z,75.23
2017-10-12T18:50:35.222Z,75.48
2017-10-12T18:53:03.476Z,76.01
2017-10-12T18:55:31.739Z,75.57
2017-10-12T18:58:00.756Z,75.87
2017-10-12T19:00:29.028Z,75.59
2017-10-12T19:02:57.297Z,75.78
2017-10-12T19:05:25.561Z,75.52
2017-10-12T19:07:54.573Z,75.29
2017-10-12T19:10:22.835Z,74.70
2017-10-12T19:12:51.114Z,74.58
2017-10-12T19:17:48.392Z,74.78
2017-10-12T19:20:16.650Z,74.47
2017-10-12T19:22:45.669Z,74.90
2017-10-12T19:25:13.928Z,75.05
2017-10-12T19:27:42.169Z,74.92
2017-10-12T19:30:10.432Z,74.88
2017-10-12T19:32:38.689Z,74.97
2017-10-12T19:35:06.948Z,74.95
2017-10-12T19:37:35.190Z,75.24
2017-10-12T19:40:04.260Z,75.39
2017-10-12T19:42:32.503Z,75.41
2017-10-12T19:45:00.757Z,75.63
2017-10-12T19:47:29.030Z,75.62
2017-10-12T19:49:57.274Z,76.07
2017-10-12T19:52:25.536Z,76.18
2017-10-12T19:54:53.781Z,76.19
2017-10-12T19:57:22.049Z,76.14
2017-10-12T19:59:50.313Z,76.05
2017-10-12T20:02:18.567Z,76.03
2017-10-12T20:04:47.577Z,76.24
2017-10-12T20:07:15.834Z,76.10
2017-10-12T20:09:44.850Z,75.99
2017-10-12T20:12:13.116Z,76.29
2017-10-12T20:14:41.359Z,76.25
2017-10-12T20:17:09.631Z,76.64
2017-10-12T20:19:37.896Z,76.25
2017-10-12T20:22:06.144Z,76.60
2017-10-12T20:24:34.396Z,76.72
2017-10-12T20:27:02.641Z,76.19
2017-10-12T20:31:59.137Z,76.60
2017-10-12T20:34:27.395Z,76.73
2017-10-12T20:36:55.643Z,76.88
2017-10-12T20:39:24.672Z,76.86
2017-10-12T20:44:22.030Z,77.25
2017-10-12T20:46:50.421Z,76.87
2017-10-12T20:49:18.666Z,77.42
2017-10-12T20:51:47.687Z,77.49
2017-10-12T20:54:15.925Z,77.74
2017-10-12T20:56:44.946Z,77.57
2017-10-12T20:59:13.196Z,77.95
2017-10-12T21:01:42.331Z,77.98
2017-10-12T21:04:10.584Z,78.18
2017-10-12T21:06:39.628Z,78.42
2017-10-12T21:09:07.873Z,78.35
2017-10-12T21:11:36.148Z,78.45
2017-10-12T21:14:04.390Z,78.24
2017-10-12T21:16:33.413Z,78.54
2017-10-12T21:19:01.659Z,78.69
2017-10-12T21:21:30.679Z,78.75
2017-10-12T21:23:58.931Z,78.84
2017-10-12T21:26:27.951Z,78.68
2017-10-12T21:28:56.209Z,78.71
2017-10-12T21:31:25.222Z,78.84
2017-10-12T21:33:53.479Z,78.65
2017-10-12T21:36:22.490Z,78.75
2017-10-12T21:38:50.771Z,78.85
2017-10-12T21:41:19.023Z,78.86
2017-10-12T21:43:48.796Z,78.80
2017-10-12T21:46:17.060Z,78.81
2017-10-12T21:48:45.319Z,78.80
2017-10-12T21:51:13.561Z,78.98
2017-10-12T21:53:42.593Z,78.86
2017-10-12T21:56:10.834Z,78.52
2017-10-12T21:58:39.090Z,78.80
2017-10-12T22:01:08.110Z,78.64
2017-10-12T22:03:36.356Z,78.99
2017-10-12T22:06:05.377Z,78.83
2017-10-12T22:08:33.629Z,78.36
2017-10-12T22:11:02.649Z,78.37
2017-10-12T22:13:30.889Z,78.52
2017-10-12T22:15:59.914Z,78.32
2017-10-12T22:18:28.160Z,78.36
2017-10-12T22:20:57.189Z,78.55
2017-10-12T22:23:25.435Z,78.28
2017-10-12T22:25:54.461Z,78.54
2017-10-12T22:28:22.703Z,78.27
2017-10-12T22:30:51.722Z,78.39
2017-10-12T22:33:19.970Z,78.29
2017-10-12T22:35:48.989Z,78.34
2017-10-12T22:38:17.242Z,78.42
2017-10-12T22:40:46.246Z,78.69
2017-10-12T22:43:14.495Z,78.87
2017-10-12T22:45:42.746Z,78.84
2017-10-12T22:48:11.003Z,78.59
2017-10-12T22:50:39.237Z,78.82
2017-10-12T22:53:08.254Z,78.97
2017-10-12T22:55:36.502Z,79.32
2017-10-12T22:58:05.519Z,79.14
2017-10-12T23:00:33.775Z,79.43
2017-10-12T23:03:02.794Z,79.45
2017-10-12T23:05:31.037Z,79.16
2017-10-12T23:08:00.074Z,79.27
2017-10-12T23:10:28.323Z,79.35
2017-10-12T23:12:56.566Z,79.41
2017-10-12T23:15:24.813Z,79.41
2017-10-12T23:17:53.061Z,79.81
2017-10-12T23:20:21.319Z,79.99
2017-10-12T23:22:50.337Z,80.40
2017-10-12T23:25:18.580Z,80.38
2017-10-12T23:27:47.590Z,80.29
2017-10-12T23:30:15.852Z,81.06
2017-10-12T23:32:44.859Z,80.53
2017-10-12T23:35:13.114Z,80.52
2017-10-12T23:37:42.130Z,80.77
2017-10-12T23:40:10.402Z,80.92
2017-10-12T23:42:38.653Z,81.09
2017-10-12T23:45:07.660Z,81.21
2017-10-12T23:47:35.926Z,81.47
2017-10-12T23:50:04.931Z,81.44
2017-10-12T23:52:33.947Z,81.37
2017-10-12T23:55:02.202Z,81.46
2017-10-12T23:57:31.219Z,81.46
2017-10-12T23:59:59.465Z,81.75
